sensor_id;sensor_type;location;lat;lon;timestamp;temperature;humidity
36548;DHT22;22551;52.206;4.856;2023-07-30T00:01:16;16.50;99.90
36548;DHT22;22551;52.206;4.856;2023-07-30T00:06:18;16.50;99.90
36548;DHT22;22551;52.206;4.856;2023-07-30T00:11:22;16.50;99.90
36548;DHT22;22551;52.206;4.856;2023-07-30T00:16:25;16.50;99.90
36548;DHT22;22551;52.206;4.856;2023-07-30T00:21:27;16.50;99.90
36548;DHT22;22551;52.206;4.856;2023-07-30T00:26:31;16.50;99.90
36548;DHT22;22551;52.206;4.856;2023-07-30T00:31:33;16.50;99.90
36548;DHT22;22551;52.206;4.856;2023-07-30T00:36:36;16.50;99.90
36548;DHT22;22551;52.206;4.856;2023-07-30T00:41:42;16.60;99.90
36548;DHT22;22551;52.206;4.856;2023-07-30T00:46:44;16.60;99.90
36548;DHT22;22551;52.206;4.856;2023-07-30T00:51:47;16.70;99.90
36548;DHT22;22551;52.206;4.856;2023-07-30T00:56:51;16.70;99.90
36548;DHT22;22551;52.206;4.856;2023-07-30T01:01:56;16.80;99.90
36548;DHT22;22551;52.206;4.856;2023-07-30T01:06:59;16.90;99.90
36548;DHT22;22551;52.206;4.856;2023-07-30T01:12:03;16.90;99.90
36548;DHT22;22551;52.206;4.856;2023-07-30T01:17:07;16.90;99.90
36548;DHT22;22551;52.206;4.856;2023-07-30T01:22:11;16.80;99.90
36548;DHT22;22551;52.206;4.856;2023-07-30T01:27:18;16.80;99.90
36548;DHT22;22551;52.206;4.856;2023-07-30T01:32:26;16.80;99.90
36548;DHT22;22551;52.206;4.856;2023-07-30T01:37:29;16.80;99.90
36548;DHT22;22551;52.206;4.856;2023-07-30T01:42:32;16.80;99.90
36548;DHT22;22551;52.206;4.856;2023-07-30T01:47:34;16.80;99.90
36548;DHT22;22551;52.206;4.856;2023-07-30T01:52:38;16.80;99.90
36548;DHT22;22551;52.206;4.856;2023-07-30T01:57:40;16.80;99.90
36548;DHT22;22551;52.206;4.856;2023-07-30T02:02:42;16.80;99.90
36548;DHT22;22551;52.206;4.856;2023-07-30T02:07:46;16.70;99.90
36548;DHT22;22551;52.206;4.856;2023-07-30T02:12:48;16.70;99.90
36548;DHT22;22551;52.206;4.856;2023-07-30T02:17:50;16.70;99.90
36548;DHT22;22551;52.206;4.856;2023-07-30T02:22:54;16.70;99.90
36548;DHT22;22551;52.206;4.856;2023-07-30T02:27:56;16.70;99.90
36548;DHT22;22551;52.206;4.856;2023-07-30T02:33:00;16.70;99.90
36548;DHT22;22551;52.206;4.856;2023-07-30T02:38:04;16.70;99.90
36548;DHT22;22551;52.206;4.856;2023-07-30T02:43:06;16.70;99.90
36548;DHT22;22551;52.206;4.856;2023-07-30T02:48:08;16.70;99.90
36548;DHT22;22551;52.206;4.856;2023-07-30T02:53:12;16.70;99.90
36548;DHT22;22551;52.206;4.856;2023-07-30T02:58:14;16.70;99.90
36548;DHT22;22551;52.206;4.856;2023-07-30T03:03:16;16.70;99.90
36548;DHT22;22551;52.206;4.856;2023-07-30T03:08:20;16.70;99.90
36548;DHT22;22551;52.206;4.856;2023-07-30T03:13:22;16.60;99.90
36548;DHT22;22551;52.206;4.856;2023-07-30T03:18:24;16.60;99.90
36548;DHT22;22551;52.206;4.856;2023-07-30T03:23:28;16.70;99.90
36548;DHT22;22551;52.206;4.856;2023-07-30T03:28:30;16.70;99.90
36548;DHT22;22551;52.206;4.856;2023-07-30T03:33:33;16.70;99.90
36548;DHT22;22551;52.206;4.856;2023-07-30T03:38:36;16.70;99.90
36548;DHT22;22551;52.206;4.856;2023-07-30T03:43:39;16.80;99.90
36548;DHT22;22551;52.206;4.856;2023-07-30T03:48:41;16.70;99.90
36548;DHT22;22551;52.206;4.856;2023-07-30T03:53:44;16.80;99.90
36548;DHT22;22551;52.206;4.856;2023-07-30T03:58:46;16.80;99.90
36548;DHT22;22551;52.206;4.856;2023-07-30T04:03:49;16.80;99.90
36548;DHT22;22551;52.206;4.856;2023-07-30T04:08:52;16.80;99.90
36548;DHT22;22551;52.206;4.856;2023-07-30T04:13:55;16.90;99.90
36548;DHT22;22551;52.206;4.856;2023-07-30T04:18:57;16.90;99.90
36548;DHT22;22551;52.206;4.856;2023-07-30T04:24:01;16.90;99.90
36548;DHT22;22551;52.206;4.856;2023-07-30T04:29:03;16.80;99.90
36548;DHT22;22551;52.206;4.856;2023-07-30T04:34:06;16.80;99.90
36548;DHT22;22551;52.206;4.856;2023-07-30T04:39:09;16.80;99.90
36548;DHT22;22551;52.206;4.856;2023-07-30T04:44:12;16.70;99.90
36548;DHT22;22551;52.206;4.856;2023-07-30T04:49:15;16.60;99.90
36548;DHT22;22551;52.206;4.856;2023-07-30T04:54:19;16.60;99.90
36548;DHT22;22551;52.206;4.856;2023-07-30T04:59:21;16.50;99.90
36548;DHT22;22551;52.206;4.856;2023-07-30T05:04:23;16.50;99.90
36548;DHT22;22551;52.206;4.856;2023-07-30T05:09:27;16.70;99.90
36548;DHT22;22551;52.206;4.856;2023-07-30T05:14:29;16.70;99.90
36548;DHT22;22551;52.206;4.856;2023-07-30T05:19:31;16.80;99.90
36548;DHT22;22551;52.206;4.856;2023-07-30T05:24:35;16.80;99.90
36548;DHT22;22551;52.206;4.856;2023-07-30T05:29:38;16.80;99.90
36548;DHT22;22551;52.206;4.856;2023-07-30T05:34:40;17.00;99.90
36548;DHT22;22551;52.206;4.856;2023-07-30T05:39:44;17.10;99.90
36548;DHT22;22551;52.206;4.856;2023-07-30T05:44:46;17.20;99.90
36548;DHT22;22551;52.206;4.856;2023-07-30T05:49:49;17.20;99.90
36548;DHT22;22551;52.206;4.856;2023-07-30T05:54:52;17.20;99.90
36548;DHT22;22551;52.206;4.856;2023-07-30T05:59:55;17.30;99.90
36548;DHT22;22551;52.206;4.856;2023-07-30T06:04:57;17.40;99.90
36548;DHT22;22551;52.206;4.856;2023-07-30T06:10:01;17.50;99.90
36548;DHT22;22551;52.206;4.856;2023-07-30T06:15:06;17.40;99.90
36548;DHT22;22551;52.206;4.856;2023-07-30T06:20:11;17.50;99.90
36548;DHT22;22551;52.206;4.856;2023-07-30T06:25:15;17.60;99.90
36548;DHT22;22551;52.206;4.856;2023-07-30T06:30:17;17.60;99.90
36548;DHT22;22551;52.206;4.856;2023-07-30T06:35:19;17.60;99.90
36548;DHT22;22551;52.206;4.856;2023-07-30T06:40:23;17.70;99.90
36548;DHT22;22551;52.206;4.856;2023-07-30T06:45:25;17.70;99.90
36548;DHT22;22551;52.206;4.856;2023-07-30T06:50:28;17.80;99.90
36548;DHT22;22551;52.206;4.856;2023-07-30T06:55:31;17.90;99.90
36548;DHT22;22551;52.206;4.856;2023-07-30T07:00:34;18.10;99.90
36548;DHT22;22551;52.206;4.856;2023-07-30T07:05:36;18.10;99.90
36548;DHT22;22551;52.206;4.856;2023-07-30T07:10:40;18.10;99.90
36548;DHT22;22551;52.206;4.856;2023-07-30T07:15:50;17.90;99.90
36548;DHT22;22551;52.206;4.856;2023-07-30T07:20:53;17.70;99.90
36548;DHT22;22551;52.206;4.856;2023-07-30T07:25:56;17.50;99.90
36548;DHT22;22551;52.206;4.856;2023-07-30T07:30:59;17.50;99.90
36548;DHT22;22551;52.206;4.856;2023-07-30T07:36:06;17.40;99.90
36548;DHT22;22551;52.206;4.856;2023-07-30T07:41:14;17.40;99.90
36548;DHT22;22551;52.206;4.856;2023-07-30T07:46:17;17.30;99.90
36548;DHT22;22551;52.206;4.856;2023-07-30T07:51:19;17.20;99.90
36548;DHT22;22551;52.206;4.856;2023-07-30T07:56:23;17.60;99.90
36548;DHT22;22551;52.206;4.856;2023-07-30T08:01:26;18.10;99.90
36548;DHT22;22551;52.206;4.856;2023-07-30T08:06:28;18.40;99.90
36548;DHT22;22551;52.206;4.856;2023-07-30T08:11:32;18.40;99.90
36548;DHT22;22551;52.206;4.856;2023-07-30T08:16:35;18.80;99.90
36548;DHT22;22551;52.206;4.856;2023-07-30T08:21:37;19.40;99.90
36548;DHT22;22551;52.206;4.856;2023-07-30T08:26:41;19.40;99.90
36548;DHT22;22551;52.206;4.856;2023-07-30T08:31:44;19.10;99.90
36548;DHT22;22551;52.206;4.856;2023-07-30T08:36:48;19.00;99.90
36548;DHT22;22551;52.206;4.856;2023-07-30T08:41:52;18.80;99.90
36548;DHT22;22551;52.206;4.856;2023-07-30T08:46:54;18.80;99.90
36548;DHT22;22551;52.206;4.856;2023-07-30T08:51:57;18.90;99.90
36548;DHT22;22551;52.206;4.856;2023-07-30T08:57:01;19.10;99.90
36548;DHT22;22551;52.206;4.856;2023-07-30T09:02:08;19.40;99.90
36548;DHT22;22551;52.206;4.856;2023-07-30T09:07:16;20.30;99.90
36548;DHT22;22551;52.206;4.856;2023-07-30T09:12:20;20.60;99.90
36548;DHT22;22551;52.206;4.856;2023-07-30T09:17:27;20.80;99.90
36548;DHT22;22551;52.206;4.856;2023-07-30T09:22:32;21.70;99.90
36548;DHT22;22551;52.206;4.856;2023-07-30T09:27:38;21.70;99.90
36548;DHT22;22551;52.206;4.856;2023-07-30T09:32:40;21.70;99.90
36548;DHT22;22551;52.206;4.856;2023-07-30T09:37:42;22.10;99.90
36548;DHT22;22551;52.206;4.856;2023-07-30T09:42:48;22.50;99.90
36548;DHT22;22551;52.206;4.856;2023-07-30T09:47:53;22.60;99.90
36548;DHT22;22551;52.206;4.856;2023-07-30T09:52:58;22.90;99.90
36548;DHT22;22551;52.206;4.856;2023-07-30T09:58:04;22.80;99.90
36548;DHT22;22551;52.206;4.856;2023-07-30T10:03:10;21.90;99.90
36548;DHT22;22551;52.206;4.856;2023-07-30T10:08:19;22.20;99.90
36548;DHT22;22551;52.206;4.856;2023-07-30T10:13:25;21.70;99.90
36548;DHT22;22551;52.206;4.856;2023-07-30T10:18:34;21.00;99.90
36548;DHT22;22551;52.206;4.856;2023-07-30T10:23:46;21.00;99.90
36548;DHT22;22551;52.206;4.856;2023-07-30T10:29:10;21.50;99.90
36548;DHT22;22551;52.206;4.856;2023-07-30T10:34:16;21.80;99.90
36548;DHT22;22551;52.206;4.856;2023-07-30T10:39:19;21.40;99.90
36548;DHT22;22551;52.206;4.856;2023-07-30T10:44:26;20.70;99.90
36548;DHT22;22551;52.206;4.856;2023-07-30T10:49:36;20.60;99.90
36548;DHT22;22551;52.206;4.856;2023-07-30T10:54:41;20.80;99.90
36548;DHT22;22551;52.206;4.856;2023-07-30T10:59:45;20.70;99.90
36548;DHT22;22551;52.206;4.856;2023-07-30T11:04:49;20.90;99.90
36548;DHT22;22551;52.206;4.856;2023-07-30T11:09:59;21.30;99.90
36548;DHT22;22551;52.206;4.856;2023-07-30T11:15:06;21.30;99.90
36548;DHT22;22551;52.206;4.856;2023-07-30T11:20:21;21.70;99.90
36548;DHT22;22551;52.206;4.856;2023-07-30T11:25:27;22.60;99.90
36548;DHT22;22551;52.206;4.856;2023-07-30T11:30:32;22.40;99.90
36548;DHT22;22551;52.206;4.856;2023-07-30T11:35:36;22.60;99.90
36548;DHT22;22551;52.206;4.856;2023-07-30T11:40:40;22.70;99.90
36548;DHT22;22551;52.206;4.856;2023-07-30T11:45:46;23.10;99.90
36548;DHT22;22551;52.206;4.856;2023-07-30T11:50:50;23.50;99.90
36548;DHT22;22551;52.206;4.856;2023-07-30T11:55:54;23.50;99.90
36548;DHT22;22551;52.206;4.856;2023-07-30T12:01:00;24.00;99.90
36548;DHT22;22551;52.206;4.856;2023-07-30T12:06:05;22.50;99.90
36548;DHT22;22551;52.206;4.856;2023-07-30T12:11:09;22.50;99.90
36548;DHT22;22551;52.206;4.856;2023-07-30T12:16:14;22.80;99.90
36548;DHT22;22551;52.206;4.856;2023-07-30T12:21:18;23.40;99.90
36548;DHT22;22551;52.206;4.856;2023-07-30T12:26:20;23.00;99.90
36548;DHT22;22551;52.206;4.856;2023-07-30T12:31:24;23.50;99.90
36548;DHT22;22551;52.206;4.856;2023-07-30T12:36:28;23.20;99.90
36548;DHT22;22551;52.206;4.856;2023-07-30T12:41:30;23.30;99.90
36548;DHT22;22551;52.206;4.856;2023-07-30T12:46:34;23.10;99.90
36548;DHT22;22551;52.206;4.856;2023-07-30T12:51:38;22.50;99.90
36548;DHT22;22551;52.206;4.856;2023-07-30T12:56:41;21.00;99.90
36548;DHT22;22551;52.206;4.856;2023-07-30T13:01:44;21.50;99.90
36548;DHT22;22551;52.206;4.856;2023-07-30T13:06:47;22.30;99.90
36548;DHT22;22551;52.206;4.856;2023-07-30T13:11:50;22.80;99.90
36548;DHT22;22551;52.206;4.856;2023-07-30T13:16:55;23.10;99.90
36548;DHT22;22551;52.206;4.856;2023-07-30T13:21:57;22.00;99.90
36548;DHT22;22551;52.206;4.856;2023-07-30T13:27:00;22.50;99.90
36548;DHT22;22551;52.206;4.856;2023-07-30T13:32:04;22.40;99.90
36548;DHT22;22551;52.206;4.856;2023-07-30T13:37:07;22.50;99.90
36548;DHT22;22551;52.206;4.856;2023-07-30T13:42:09;23.20;99.90
36548;DHT22;22551;52.206;4.856;2023-07-30T13:47:13;22.60;99.90
36548;DHT22;22551;52.206;4.856;2023-07-30T13:52:15;22.60;99.90
36548;DHT22;22551;52.206;4.856;2023-07-30T13:57:22;22.30;99.90
36548;DHT22;22551;52.206;4.856;2023-07-30T14:02:26;22.10;99.90
36548;DHT22;22551;52.206;4.856;2023-07-30T14:07:28;22.40;99.90
36548;DHT22;22551;52.206;4.856;2023-07-30T14:12:30;22.00;99.90
36548;DHT22;22551;52.206;4.856;2023-07-30T14:17:34;21.70;99.90
36548;DHT22;22551;52.206;4.856;2023-07-30T14:22:36;21.60;99.90
36548;DHT22;22551;52.206;4.856;2023-07-30T14:27:39;21.50;99.90
36548;DHT22;22551;52.206;4.856;2023-07-30T14:32:42;21.90;99.90
36548;DHT22;22551;52.206;4.856;2023-07-30T14:37:45;21.80;99.90
36548;DHT22;22551;52.206;4.856;2023-07-30T14:42:47;21.30;99.90
36548;DHT22;22551;52.206;4.856;2023-07-30T14:47:51;22.00;99.90
36548;DHT22;22551;52.206;4.856;2023-07-30T14:52:53;22.30;99.90
36548;DHT22;22551;52.206;4.856;2023-07-30T14:57:56;21.90;99.90
36548;DHT22;22551;52.206;4.856;2023-07-30T15:03:00;21.70;99.90
36548;DHT22;22551;52.206;4.856;2023-07-30T15:08:02;21.50;99.90
36548;DHT22;22551;52.206;4.856;2023-07-30T15:13:05;21.60;99.90
36548;DHT22;22551;52.206;4.856;2023-07-30T15:18:08;21.50;99.90
36548;DHT22;22551;52.206;4.856;2023-07-30T15:23:11;21.20;99.90
36548;DHT22;22551;52.206;4.856;2023-07-30T15:28:13;21.30;99.90
36548;DHT22;22551;52.206;4.856;2023-07-30T15:33:17;21.40;99.90
36548;DHT22;22551;52.206;4.856;2023-07-30T15:38:20;21.00;99.90
36548;DHT22;22551;52.206;4.856;2023-07-30T15:43:22;21.20;99.90
36548;DHT22;22551;52.206;4.856;2023-07-30T15:48:26;21.20;99.90
36548;DHT22;22551;52.206;4.856;2023-07-30T15:53:28;21.20;99.90
36548;DHT22;22551;52.206;4.856;2023-07-30T15:58:31;21.40;99.90
36548;DHT22;22551;52.206;4.856;2023-07-30T16:03:35;21.90;99.90
36548;DHT22;22551;52.206;4.856;2023-07-30T16:08:39;21.50;99.90
36548;DHT22;22551;52.206;4.856;2023-07-30T16:13:44;21.80;99.90
36548;DHT22;22551;52.206;4.856;2023-07-30T16:18:48;21.60;99.90
36548;DHT22;22551;52.206;4.856;2023-07-30T16:23:50;21.40;99.90
36548;DHT22;22551;52.206;4.856;2023-07-30T16:28:53;21.20;99.90
36548;DHT22;22551;52.206;4.856;2023-07-30T16:33:56;20.80;99.90
36548;DHT22;22551;52.206;4.856;2023-07-30T16:38:59;20.80;99.90
36548;DHT22;22551;52.206;4.856;2023-07-30T16:44:01;20.60;99.90
36548;DHT22;22551;52.206;4.856;2023-07-30T16:49:05;20.50;99.90
36548;DHT22;22551;52.206;4.856;2023-07-30T16:54:09;20.40;99.90
36548;DHT22;22551;52.206;4.856;2023-07-30T16:59:14;20.30;99.90
36548;DHT22;22551;52.206;4.856;2023-07-30T17:04:18;20.40;99.90
36548;DHT22;22551;52.206;4.856;2023-07-30T17:09:20;20.30;99.90
36548;DHT22;22551;52.206;4.856;2023-07-30T17:14:24;20.30;99.90
36548;DHT22;22551;52.206;4.856;2023-07-30T17:19:27;20.40;99.90
36548;DHT22;22551;52.206;4.856;2023-07-30T17:24:31;20.50;99.90
36548;DHT22;22551;52.206;4.856;2023-07-30T17:29:34;20.30;99.90
36548;DHT22;22551;52.206;4.856;2023-07-30T17:34:38;20.20;99.90
36548;DHT22;22551;52.206;4.856;2023-07-30T17:39:40;20.10;99.90
36548;DHT22;22551;52.206;4.856;2023-07-30T17:44:42;19.80;99.90
36548;DHT22;22551;52.206;4.856;2023-07-30T17:49:47;19.70;99.90
36548;DHT22;22551;52.206;4.856;2023-07-30T17:54:50;19.60;99.90
36548;DHT22;22551;52.206;4.856;2023-07-30T17:59:52;19.40;99.90
36548;DHT22;22551;52.206;4.856;2023-07-30T18:04:56;19.50;99.90
36548;DHT22;22551;52.206;4.856;2023-07-30T18:09:59;19.50;99.90
36548;DHT22;22551;52.206;4.856;2023-07-30T18:15:02;19.20;99.90
36548;DHT22;22551;52.206;4.856;2023-07-30T18:20:09;19.10;99.90
36548;DHT22;22551;52.206;4.856;2023-07-30T18:25:12;19.10;99.90
36548;DHT22;22551;52.206;4.856;2023-07-30T18:30:14;19.10;99.90
36548;DHT22;22551;52.206;4.856;2023-07-30T18:35:18;19.10;99.90
36548;DHT22;22551;52.206;4.856;2023-07-30T18:40:21;19.10;99.90
36548;DHT22;22551;52.206;4.856;2023-07-30T18:45:23;19.10;99.90
36548;DHT22;22551;52.206;4.856;2023-07-30T18:50:29;19.00;99.90
36548;DHT22;22551;52.206;4.856;2023-07-30T18:55:31;18.90;99.90
36548;DHT22;22551;52.206;4.856;2023-07-30T19:00:33;18.90;99.90
36548;DHT22;22551;52.206;4.856;2023-07-30T19:05:37;18.80;99.90
36548;DHT22;22551;52.206;4.856;2023-07-30T19:10:39;18.70;99.90
36548;DHT22;22551;52.206;4.856;2023-07-30T19:15:42;18.70;99.90
36548;DHT22;22551;52.206;4.856;2023-07-30T19:20:46;18.70;99.90
36548;DHT22;22551;52.206;4.856;2023-07-30T19:25:49;18.70;99.90
36548;DHT22;22551;52.206;4.856;2023-07-30T19:30:52;18.60;99.90
36548;DHT22;22551;52.206;4.856;2023-07-30T19:35:56;18.40;99.90
36548;DHT22;22551;52.206;4.856;2023-07-30T19:41:00;18.20;99.90
36548;DHT22;22551;52.206;4.856;2023-07-30T19:46:06;18.10;99.90
36548;DHT22;22551;52.206;4.856;2023-07-30T19:51:11;18.00;99.90
36548;DHT22;22551;52.206;4.856;2023-07-30T19:56:13;18.00;99.90
36548;DHT22;22551;52.206;4.856;2023-07-30T20:01:16;17.90;99.90
36548;DHT22;22551;52.206;4.856;2023-07-30T20:06:19;17.80;99.90
36548;DHT22;22551;52.206;4.856;2023-07-30T20:11:23;17.60;99.90
36548;DHT22;22551;52.206;4.856;2023-07-30T20:16:25;17.50;99.90
36548;DHT22;22551;52.206;4.856;2023-07-30T20:21:29;17.30;99.90
36548;DHT22;22551;52.206;4.856;2023-07-30T20:26:31;17.30;99.90
36548;DHT22;22551;52.206;4.856;2023-07-30T20:31:35;17.20;99.90
36548;DHT22;22551;52.206;4.856;2023-07-30T20:36:39;17.20;99.90
36548;DHT22;22551;52.206;4.856;2023-07-30T20:41:42;17.20;99.90
36548;DHT22;22551;52.206;4.856;2023-07-30T20:46:44;17.10;99.90
36548;DHT22;22551;52.206;4.856;2023-07-30T20:51:48;17.00;99.90
36548;DHT22;22551;52.206;4.856;2023-07-30T20:56:51;17.00;99.90
36548;DHT22;22551;52.206;4.856;2023-07-30T21:01:54;16.90;99.90
36548;DHT22;22551;52.206;4.856;2023-07-30T21:06:57;16.80;99.90
36548;DHT22;22551;52.206;4.856;2023-07-30T21:12:00;16.80;99.90
36548;DHT22;22551;52.206;4.856;2023-07-30T21:17:03;16.80;99.90
36548;DHT22;22551;52.206;4.856;2023-07-30T21:22:07;16.70;99.90
36548;DHT22;22551;52.206;4.856;2023-07-30T21:27:09;16.60;99.90
36548;DHT22;22551;52.206;4.856;2023-07-30T21:32:12;16.60;99.90
36548;DHT22;22551;52.206;4.856;2023-07-30T21:37:16;16.50;99.90
36548;DHT22;22551;52.206;4.856;2023-07-30T21:42:18;16.50;99.90
36548;DHT22;22551;52.206;4.856;2023-07-30T21:47:20;16.50;99.90
36548;DHT22;22551;52.206;4.856;2023-07-30T21:52:25;16.50;99.90
36548;DHT22;22551;52.206;4.856;2023-07-30T21:57:28;16.50;99.90
36548;DHT22;22551;52.206;4.856;2023-07-30T22:02:30;16.40;99.90
36548;DHT22;22551;52.206;4.856;2023-07-30T22:07:34;16.30;99.90
36548;DHT22;22551;52.206;4.856;2023-07-30T22:12:36;16.20;99.90
36548;DHT22;22551;52.206;4.856;2023-07-30T22:17:39;16.20;99.90
36548;DHT22;22551;52.206;4.856;2023-07-30T22:22:42;16.10;99.90
36548;DHT22;22551;52.206;4.856;2023-07-30T22:27:47;16.10;99.90
36548;DHT22;22551;52.206;4.856;2023-07-30T22:32:49;16.10;99.90
36548;DHT22;22551;52.206;4.856;2023-07-30T22:37:55;16.00;99.90
36548;DHT22;22551;52.206;4.856;2023-07-30T22:42:57;16.00;99.90
36548;DHT22;22551;52.206;4.856;2023-07-30T22:48:01;16.00;99.90
36548;DHT22;22551;52.206;4.856;2023-07-30T22:53:06;16.00;99.90
36548;DHT22;22551;52.206;4.856;2023-07-30T22:58:08;16.00;99.90
36548;DHT22;22551;52.206;4.856;2023-07-30T23:03:10;16.00;99.90
36548;DHT22;22551;52.206;4.856;2023-07-30T23:08:14;16.10;99.90
36548;DHT22;22551;52.206;4.856;2023-07-30T23:23:38;16.50;99.90
36548;DHT22;22551;52.206;4.856;2023-07-30T23:28:44;16.60;99.90
36548;DHT22;22551;52.206;4.856;2023-07-30T23:33:46;16.70;99.90
36548;DHT22;22551;52.206;4.856;2023-07-30T23:38:50;16.80;99.90
36548;DHT22;22551;52.206;4.856;2023-07-30T23:43:52;16.80;99.90
36548;DHT22;22551;52.206;4.856;2023-07-30T23:48:54;16.80;99.90
36548;DHT22;22551;52.206;4.856;2023-07-30T23:53:58;16.80;99.90
36548;DHT22;22551;52.206;4.856;2023-07-30T23:59:00;16.90;99.90
